sensor_id;sensor_type;location;lat;lon;timestamp;P1;durP1;ratioP1;P2;durP2;ratioP2
8913;SDS011;4492;48.736;9.092;2023-06-24T00:00:26;4.53;;;4.13;;
8913;SDS011;4492;48.736;9.092;2023-06-24T00:02:53;5.67;;;4.30;;
8913;SDS011;4492;48.736;9.092;2023-06-24T00:05:18;4.80;;;4.40;;
8913;SDS011;4492;48.736;9.092;2023-06-24T00:07:44;5.57;;;4.57;;
8913;SDS011;4492;48.736;9.092;2023-06-24T00:10:11;5.10;;;4.57;;
8913;SDS011;4492;48.736;9.092;2023-06-24T00:12:37;5.13;;;4.63;;
8913;SDS011;4492;48.736;9.092;2023-06-24T00:15:04;7.27;;;5.10;;
8913;SDS011;4492;48.736;9.092;2023-06-24T00:17:31;5.70;;;4.80;;
8913;SDS011;4492;48.736;9.092;2023-06-24T00:19:56;5.17;;;4.67;;
8913;SDS011;4492;48.736;9.092;2023-06-24T00:22:22;5.67;;;5.17;;
8913;SDS011;4492;48.736;9.092;2023-06-24T00:24:47;5.80;;;5.20;;
8913;SDS011;4492;48.736;9.092;2023-06-24T00:27:13;6.27;;;5.67;;
8913;SDS011;4492;48.736;9.092;2023-06-24T00:29:38;5.70;;;5.13;;
8913;SDS011;4492;48.736;9.092;2023-06-24T00:32:04;6.07;;;4.90;;
8913;SDS011;4492;48.736;9.092;2023-06-24T00:34:30;4.90;;;4.40;;
8913;SDS011;4492;48.736;9.092;2023-06-24T00:36:56;5.23;;;4.73;;
8913;SDS011;4492;48.736;9.092;2023-06-24T00:39:21;5.50;;;4.93;;
8913;SDS011;4492;48.736;9.092;2023-06-24T00:41:47;7.33;;;5.20;;
8913;SDS011;4492;48.736;9.092;2023-06-24T00:44:13;6.50;;;5.17;;
8913;SDS011;4492;48.736;9.092;2023-06-24T00:46:39;5.57;;;4.50;;
8913;SDS011;4492;48.736;9.092;2023-06-24T00:49:05;5.53;;;4.80;;
8913;SDS011;4492;48.736;9.092;2023-06-24T00:51:30;6.13;;;5.10;;
8913;SDS011;4492;48.736;9.092;2023-06-24T00:53:57;5.00;;;4.60;;
8913;SDS011;4492;48.736;9.092;2023-06-24T00:56:25;4.93;;;4.53;;
8913;SDS011;4492;48.736;9.092;2023-06-24T00:58:59;5.40;;;4.90;;
8913;SDS011;4492;48.736;9.092;2023-06-24T01:01:27;4.93;;;4.23;;
8913;SDS011;4492;48.736;9.092;2023-06-24T01:03:56;5.27;;;4.77;;
8913;SDS011;4492;48.736;9.092;2023-06-24T01:06:22;6.80;;;4.50;;
8913;SDS011;4492;48.736;9.092;2023-06-24T01:08:48;5.20;;;4.70;;
8913;SDS011;4492;48.736;9.092;2023-06-24T01:11:15;5.00;;;4.50;;
8913;SDS011;4492;48.736;9.092;2023-06-24T01:13:42;4.83;;;4.33;;
8913;SDS011;4492;48.736;9.092;2023-06-24T01:16:10;5.10;;;4.70;;
8913;SDS011;4492;48.736;9.092;2023-06-24T01:18:47;5.40;;;4.90;;
8913;SDS011;4492;48.736;9.092;2023-06-24T01:21:22;6.83;;;5.63;;
8913;SDS011;4492;48.736;9.092;2023-06-24T01:37:27;6.40;;;5.33;;
8913;SDS011;4492;48.736;9.092;2023-06-24T01:40:01;5.10;;;4.60;;
8913;SDS011;4492;48.736;9.092;2023-06-24T01:42:59;5.70;;;5.20;;
8913;SDS011;4492;48.736;9.092;2023-06-24T01:45:37;5.10;;;4.70;;
8913;SDS011;4492;48.736;9.092;2023-06-24T01:48:18;5.47;;;4.60;;
8913;SDS011;4492;48.736;9.092;2023-06-24T01:51:34;5.00;;;4.50;;
8913;SDS011;4492;48.736;9.092;2023-06-24T01:53:38;5.83;;;5.00;;
8913;SDS011;4492;48.736;9.092;2023-06-24T01:56:07;6.53;;;4.83;;
8913;SDS011;4492;48.736;9.092;2023-06-24T01:58:36;5.10;;;4.60;;
8913;SDS011;4492;48.736;9.092;2023-06-24T02:01:02;6.07;;;5.20;;
8913;SDS011;4492;48.736;9.092;2023-06-24T02:03:29;5.93;;;5.33;;
8913;SDS011;4492;48.736;9.092;2023-06-24T02:05:57;5.80;;;5.20;;
8913;SDS011;4492;48.736;9.092;2023-06-24T02:08:24;5.73;;;5.13;;
8913;SDS011;4492;48.736;9.092;2023-06-24T02:10:50;5.33;;;4.83;;
8913;SDS011;4492;48.736;9.092;2023-06-24T02:13:17;5.60;;;5.10;;
8913;SDS011;4492;48.736;9.092;2023-06-24T02:15:44;7.37;;;5.33;;
8913;SDS011;4492;48.736;9.092;2023-06-24T02:18:12;5.57;;;5.00;;
8913;SDS011;4492;48.736;9.092;2023-06-24T02:20:40;7.30;;;5.53;;
8913;SDS011;4492;48.736;9.092;2023-06-24T02:23:08;5.60;;;5.00;;
8913;SDS011;4492;48.736;9.092;2023-06-24T02:25:35;5.87;;;5.20;;
8913;SDS011;4492;48.736;9.092;2023-06-24T02:28:04;6.50;;;5.50;;
8913;SDS011;4492;48.736;9.092;2023-06-24T02:30:31;5.70;;;5.20;;
8913;SDS011;4492;48.736;9.092;2023-06-24T02:32:59;6.47;;;5.23;;
8913;SDS011;4492;48.736;9.092;2023-06-24T02:35:24;6.27;;;5.03;;
8913;SDS011;4492;48.736;9.092;2023-06-24T02:37:50;5.63;;;5.13;;
8913;SDS011;4492;48.736;9.092;2023-06-24T02:40:15;5.90;;;5.33;;
8913;SDS011;4492;48.736;9.092;2023-06-24T02:42:41;5.90;;;5.20;;
8913;SDS011;4492;48.736;9.092;2023-06-24T02:45:07;7.47;;;5.27;;
8913;SDS011;4492;48.736;9.092;2023-06-24T02:47:33;6.27;;;5.50;;
8913;SDS011;4492;48.736;9.092;2023-06-24T02:50:00;6.00;;;5.40;;
8913;SDS011;4492;48.736;9.092;2023-06-24T02:52:27;5.33;;;4.83;;
8913;SDS011;4492;48.736;9.092;2023-06-24T02:54:54;5.63;;;4.90;;
8913;SDS011;4492;48.736;9.092;2023-06-24T02:57:23;6.53;;;4.90;;
8913;SDS011;4492;48.736;9.092;2023-06-24T02:59:50;6.03;;;4.87;;
8913;SDS011;4492;48.736;9.092;2023-06-24T03:02:16;5.47;;;4.97;;
8913;SDS011;4492;48.736;9.092;2023-06-24T03:04:42;5.43;;;4.93;;
8913;SDS011;4492;48.736;9.092;2023-06-24T03:07:08;8.43;;;5.30;;
8913;SDS011;4492;48.736;9.092;2023-06-24T03:09:35;5.20;;;4.70;;
8913;SDS011;4492;48.736;9.092;2023-06-24T03:12:01;5.30;;;4.80;;
8913;SDS011;4492;48.736;9.092;2023-06-24T03:14:26;4.97;;;4.47;;
8913;SDS011;4492;48.736;9.092;2023-06-24T03:16:52;6.60;;;5.20;;
8913;SDS011;4492;48.736;9.092;2023-06-24T03:19:17;4.93;;;4.43;;
8913;SDS011;4492;48.736;9.092;2023-06-24T03:21:43;6.60;;;5.00;;
8913;SDS011;4492;48.736;9.092;2023-06-24T03:24:09;6.33;;;4.77;;
8913;SDS011;4492;48.736;9.092;2023-06-24T03:26:35;6.23;;;4.93;;
8913;SDS011;4492;48.736;9.092;2023-06-24T03:29:01;5.67;;;5.10;;
8913;SDS011;4492;48.736;9.092;2023-06-24T03:31:27;6.03;;;4.50;;
8913;SDS011;4492;48.736;9.092;2023-06-24T03:33:53;6.77;;;5.20;;
8913;SDS011;4492;48.736;9.092;2023-06-24T03:36:18;5.07;;;4.57;;
8913;SDS011;4492;48.736;9.092;2023-06-24T03:38:45;5.10;;;4.63;;
8913;SDS011;4492;48.736;9.092;2023-06-24T03:41:10;5.67;;;4.60;;
8913;SDS011;4492;48.736;9.092;2023-06-24T03:43:36;5.57;;;4.93;;
8913;SDS011;4492;48.736;9.092;2023-06-24T03:46:01;6.33;;;4.40;;
8913;SDS011;4492;48.736;9.092;2023-06-24T03:48:27;5.23;;;4.83;;
8913;SDS011;4492;48.736;9.092;2023-06-24T03:50:53;5.70;;;4.97;;
8913;SDS011;4492;48.736;9.092;2023-06-24T03:53:18;4.87;;;4.37;;
8913;SDS011;4492;48.736;9.092;2023-06-24T03:55:44;5.77;;;4.80;;
8913;SDS011;4492;48.736;9.092;2023-06-24T03:58:09;6.57;;;4.60;;
8913;SDS011;4492;48.736;9.092;2023-06-24T04:00:35;5.30;;;4.80;;
8913;SDS011;4492;48.736;9.092;2023-06-24T04:03:05;5.20;;;4.53;;
8913;SDS011;4492;48.736;9.092;2023-06-24T04:05:32;5.70;;;4.73;;
8913;SDS011;4492;48.736;9.092;2023-06-24T04:07:58;5.50;;;5.03;;
8913;SDS011;4492;48.736;9.092;2023-06-24T04:10:23;5.97;;;4.87;;
8913;SDS011;4492;48.736;9.092;2023-06-24T04:12:49;5.50;;;4.80;;
8913;SDS011;4492;48.736;9.092;2023-06-24T04:15:15;5.80;;;5.30;;
8913;SDS011;4492;48.736;9.092;2023-06-24T04:17:40;5.63;;;5.13;;
8913;SDS011;4492;48.736;9.092;2023-06-24T04:20:06;6.13;;;5.30;;
8913;SDS011;4492;48.736;9.092;2023-06-24T04:22:33;5.40;;;4.90;;
8913;SDS011;4492;48.736;9.092;2023-06-24T04:25:01;5.53;;;5.03;;
8913;SDS011;4492;48.736;9.092;2023-06-24T04:27:26;5.33;;;4.83;;
8913;SDS011;4492;48.736;9.092;2023-06-24T04:29:52;5.77;;;5.27;;
8913;SDS011;4492;48.736;9.092;2023-06-24T04:32:17;6.50;;;5.20;;
8913;SDS011;4492;48.736;9.092;2023-06-24T04:34:43;5.80;;;5.00;;
8913;SDS011;4492;48.736;9.092;2023-06-24T04:37:08;5.03;;;4.63;;
8913;SDS011;4492;48.736;9.092;2023-06-24T04:39:34;6.33;;;5.13;;
8913;SDS011;4492;48.736;9.092;2023-06-24T04:41:59;6.47;;;5.40;;
8913;SDS011;4492;48.736;9.092;2023-06-24T04:44:25;5.73;;;5.13;;
8913;SDS011;4492;48.736;9.092;2023-06-24T04:46:51;6.13;;;5.37;;
8913;SDS011;4492;48.736;9.092;2023-06-24T04:49:17;5.30;;;4.90;;
8913;SDS011;4492;48.736;9.092;2023-06-24T04:51:43;5.87;;;5.30;;
8913;SDS011;4492;48.736;9.092;2023-06-24T04:54:09;6.33;;;5.50;;
8913;SDS011;4492;48.736;9.092;2023-06-24T04:56:34;5.67;;;5.10;;
8913;SDS011;4492;48.736;9.092;2023-06-24T04:59:00;6.23;;;5.17;;
8913;SDS011;4492;48.736;9.092;2023-06-24T05:01:26;5.80;;;5.20;;
8913;SDS011;4492;48.736;9.092;2023-06-24T05:03:52;6.63;;;5.70;;
8913;SDS011;4492;48.736;9.092;2023-06-24T05:06:17;6.30;;;5.30;;
8913;SDS011;4492;48.736;9.092;2023-06-24T05:08:43;6.00;;;5.37;;
8913;SDS011;4492;48.736;9.092;2023-06-24T05:11:08;6.63;;;5.10;;
8913;SDS011;4492;48.736;9.092;2023-06-24T05:13:34;6.70;;;5.97;;
8913;SDS011;4492;48.736;9.092;2023-06-24T05:15:59;8.27;;;5.57;;
8913;SDS011;4492;48.736;9.092;2023-06-24T05:18:25;6.00;;;5.40;;
8913;SDS011;4492;48.736;9.092;2023-06-24T05:20:50;5.87;;;5.27;;
8913;SDS011;4492;48.736;9.092;2023-06-24T05:23:16;6.43;;;5.63;;
8913;SDS011;4492;48.736;9.092;2023-06-24T05:25:41;7.53;;;5.77;;
8913;SDS011;4492;48.736;9.092;2023-06-24T05:28:07;5.73;;;5.23;;
8913;SDS011;4492;48.736;9.092;2023-06-24T05:33:54;6.43;;;5.33;;
8913;SDS011;4492;48.736;9.092;2023-06-24T05:36:20;5.87;;;5.33;;
8913;SDS011;4492;48.736;9.092;2023-06-24T05:38:45;5.67;;;5.17;;
8913;SDS011;4492;48.736;9.092;2023-06-24T05:41:13;5.20;;;4.80;;
8913;SDS011;4492;48.736;9.092;2023-06-24T05:43:38;6.10;;;4.67;;
8913;SDS011;4492;48.736;9.092;2023-06-24T05:46:04;5.20;;;4.77;;
8913;SDS011;4492;48.736;9.092;2023-06-24T05:48:29;5.27;;;4.57;;
8913;SDS011;4492;48.736;9.092;2023-06-24T05:50:55;5.07;;;4.67;;
8913;SDS011;4492;48.736;9.092;2023-06-24T05:53:20;5.03;;;4.57;;
8913;SDS011;4492;48.736;9.092;2023-06-24T05:55:46;5.53;;;4.80;;
8913;SDS011;4492;48.736;9.092;2023-06-24T05:58:11;4.97;;;4.57;;
8913;SDS011;4492;48.736;9.092;2023-06-24T06:00:37;5.10;;;4.70;;
8913;SDS011;4492;48.736;9.092;2023-06-24T06:03:02;4.87;;;4.20;;
8913;SDS011;4492;48.736;9.092;2023-06-24T06:05:28;4.27;;;3.87;;
8913;SDS011;4492;48.736;9.092;2023-06-24T06:07:53;4.90;;;4.50;;
8913;SDS011;4492;48.736;9.092;2023-06-24T06:10:19;4.13;;;3.83;;
8913;SDS011;4492;48.736;9.092;2023-06-24T06:12:44;4.40;;;4.00;;
8913;SDS011;4492;48.736;9.092;2023-06-24T06:15:10;5.13;;;4.30;;
8913;SDS011;4492;48.736;9.092;2023-06-24T06:17:36;4.10;;;3.70;;
8913;SDS011;4492;48.736;9.092;2023-06-24T06:20:02;4.40;;;4.00;;
8913;SDS011;4492;48.736;9.092;2023-06-24T06:22:28;4.70;;;4.30;;
8913;SDS011;4492;48.736;9.092;2023-06-24T06:24:54;3.90;;;3.60;;
8913;SDS011;4492;48.736;9.092;2023-06-24T06:27:19;4.30;;;3.90;;
8913;SDS011;4492;48.736;9.092;2023-06-24T06:29:45;4.03;;;3.63;;
8913;SDS011;4492;48.736;9.092;2023-06-24T06:32:10;5.33;;;4.00;;
8913;SDS011;4492;48.736;9.092;2023-06-24T06:34:36;4.10;;;3.80;;
8913;SDS011;4492;48.736;9.092;2023-06-24T06:37:01;4.57;;;4.00;;
8913;SDS011;4492;48.736;9.092;2023-06-24T06:39:27;4.20;;;3.90;;
8913;SDS011;4492;48.736;9.092;2023-06-24T06:41:53;3.87;;;3.57;;
8913;SDS011;4492;48.736;9.092;2023-06-24T06:44:18;5.63;;;3.77;;
8913;SDS011;4492;48.736;9.092;2023-06-24T06:46:44;3.73;;;3.40;;
8913;SDS011;4492;48.736;9.092;2023-06-24T06:49:09;3.93;;;3.63;;
8913;SDS011;4492;48.736;9.092;2023-06-24T06:51:35;3.97;;;3.40;;
8913;SDS011;4492;48.736;9.092;2023-06-24T06:54:01;4.07;;;3.80;;
8913;SDS011;4492;48.736;9.092;2023-06-24T06:56:28;3.90;;;3.60;;
8913;SDS011;4492;48.736;9.092;2023-06-24T06:58:54;4.00;;;3.70;;
8913;SDS011;4492;48.736;9.092;2023-06-24T07:01:19;4.40;;;4.00;;
8913;SDS011;4492;48.736;9.092;2023-06-24T07:03:45;4.10;;;3.70;;
8913;SDS011;4492;48.736;9.092;2023-06-24T07:06:10;4.20;;;3.87;;
8913;SDS011;4492;48.736;9.092;2023-06-24T07:08:36;3.93;;;3.63;;
8913;SDS011;4492;48.736;9.092;2023-06-24T07:11:02;3.60;;;3.30;;
8913;SDS011;4492;48.736;9.092;2023-06-24T07:13:27;3.67;;;3.40;;
8913;SDS011;4492;48.736;9.092;2023-06-24T07:15:53;5.00;;;3.67;;
8913;SDS011;4492;48.736;9.092;2023-06-24T07:18:19;3.77;;;3.47;;
8913;SDS011;4492;48.736;9.092;2023-06-24T07:20:44;3.87;;;3.50;;
8913;SDS011;4492;48.736;9.092;2023-06-24T07:23:10;3.70;;;3.40;;
8913;SDS011;4492;48.736;9.092;2023-06-24T07:25:36;3.77;;;3.47;;
8913;SDS011;4492;48.736;9.092;2023-06-24T07:28:02;3.70;;;3.40;;
8913;SDS011;4492;48.736;9.092;2023-06-24T07:30:27;3.40;;;3.20;;
8913;SDS011;4492;48.736;9.092;2023-06-24T07:32:53;3.77;;;3.43;;
8913;SDS011;4492;48.736;9.092;2023-06-24T07:35:18;3.67;;;3.33;;
8913;SDS011;4492;48.736;9.092;2023-06-24T07:37:44;4.17;;;3.87;;
8913;SDS011;4492;48.736;9.092;2023-06-24T07:40:10;3.83;;;3.53;;
8913;SDS011;4492;48.736;9.092;2023-06-24T07:42:36;4.07;;;3.73;;
8913;SDS011;4492;48.736;9.092;2023-06-24T07:45:01;3.80;;;3.50;;
8913;SDS011;4492;48.736;9.092;2023-06-24T07:47:27;4.20;;;3.80;;
8913;SDS011;4492;48.736;9.092;2023-06-24T07:49:53;3.83;;;3.53;;
8913;SDS011;4492;48.736;9.092;2023-06-24T07:52:18;4.10;;;3.70;;
8913;SDS011;4492;48.736;9.092;2023-06-24T07:54:44;3.60;;;3.30;;
8913;SDS011;4492;48.736;9.092;2023-06-24T07:57:09;3.73;;;3.43;;
8913;SDS011;4492;48.736;9.092;2023-06-24T07:59:35;3.77;;;3.47;;
8913;SDS011;4492;48.736;9.092;2023-06-24T08:02:00;4.03;;;3.70;;
8913;SDS011;4492;48.736;9.092;2023-06-24T08:04:26;4.67;;;4.27;;
8913;SDS011;4492;48.736;9.092;2023-06-24T08:06:52;4.10;;;3.70;;
8913;SDS011;4492;48.736;9.092;2023-06-24T08:09:17;4.03;;;3.73;;
8913;SDS011;4492;48.736;9.092;2023-06-24T08:11:43;4.00;;;3.70;;
8913;SDS011;4492;48.736;9.092;2023-06-24T08:14:09;4.50;;;4.10;;
8913;SDS011;4492;48.736;9.092;2023-06-24T08:16:34;4.27;;;3.60;;
8913;SDS011;4492;48.736;9.092;2023-06-24T08:19:00;3.57;;;3.37;;
8913;SDS011;4492;48.736;9.092;2023-06-24T08:21:25;3.60;;;3.30;;
8913;SDS011;4492;48.736;9.092;2023-06-24T08:23:51;4.10;;;3.70;;
8913;SDS011;4492;48.736;9.092;2023-06-24T08:26:17;3.83;;;3.53;;
8913;SDS011;4492;48.736;9.092;2023-06-24T08:28:45;4.07;;;3.67;;
8913;SDS011;4492;48.736;9.092;2023-06-24T08:31:11;3.80;;;3.43;;
8913;SDS011;4492;48.736;9.092;2023-06-24T08:33:36;3.60;;;3.30;;
8913;SDS011;4492;48.736;9.092;2023-06-24T08:36:02;3.83;;;3.53;;
8913;SDS011;4492;48.736;9.092;2023-06-24T08:38:28;3.50;;;3.30;;
8913;SDS011;4492;48.736;9.092;2023-06-24T08:40:53;4.63;;;3.83;;
8913;SDS011;4492;48.736;9.092;2023-06-24T08:43:19;5.13;;;3.60;;
8913;SDS011;4492;48.736;9.092;2023-06-24T08:45:45;3.53;;;3.33;;
8913;SDS011;4492;48.736;9.092;2023-06-24T08:48:10;3.70;;;3.40;;
8913;SDS011;4492;48.736;9.092;2023-06-24T08:50:40;4.53;;;3.40;;
8913;SDS011;4492;48.736;9.092;2023-06-24T08:53:11;3.60;;;3.30;;
8913;SDS011;4492;48.736;9.092;2023-06-24T08:55:39;3.87;;;3.57;;
8913;SDS011;4492;48.736;9.092;2023-06-24T08:58:07;3.20;;;3.00;;
8913;SDS011;4492;48.736;9.092;2023-06-24T09:00:33;3.50;;;3.20;;
8913;SDS011;4492;48.736;9.092;2023-06-24T09:02:59;3.90;;;3.60;;
8913;SDS011;4492;48.736;9.092;2023-06-24T09:05:25;3.63;;;3.33;;
8913;SDS011;4492;48.736;9.092;2023-06-24T09:07:50;3.87;;;3.57;;
8913;SDS011;4492;48.736;9.092;2023-06-24T09:10:29;3.97;;;3.67;;
8913;SDS011;4492;48.736;9.092;2023-06-24T09:12:59;3.67;;;3.47;;
8913;SDS011;4492;48.736;9.092;2023-06-24T09:15:29;3.53;;;3.33;;
8913;SDS011;4492;48.736;9.092;2023-06-24T09:17:59;3.60;;;3.30;;
8913;SDS011;4492;48.736;9.092;2023-06-24T09:20:25;3.80;;;3.40;;
8913;SDS011;4492;48.736;9.092;2023-06-24T09:22:57;3.80;;;3.40;;
8913;SDS011;4492;48.736;9.092;2023-06-24T09:25:23;4.10;;;3.80;;
8913;SDS011;4492;48.736;9.092;2023-06-24T09:27:49;4.03;;;3.63;;
8913;SDS011;4492;48.736;9.092;2023-06-24T09:30:18;3.47;;;3.20;;
8913;SDS011;4492;48.736;9.092;2023-06-24T09:32:45;3.40;;;3.20;;
8913;SDS011;4492;48.736;9.092;2023-06-24T09:35:12;3.40;;;3.20;;
8913;SDS011;4492;48.736;9.092;2023-06-24T09:37:38;3.90;;;3.60;;
8913;SDS011;4492;48.736;9.092;2023-06-24T09:40:04;3.80;;;3.33;;
8913;SDS011;4492;48.736;9.092;2023-06-24T09:42:31;4.47;;;3.60;;
8913;SDS011;4492;48.736;9.092;2023-06-24T09:44:57;3.20;;;3.00;;
8913;SDS011;4492;48.736;9.092;2023-06-24T09:47:23;3.20;;;3.00;;
8913;SDS011;4492;48.736;9.092;2023-06-24T09:49:53;3.40;;;3.20;;
8913;SDS011;4492;48.736;9.092;2023-06-24T09:52:19;3.50;;;3.30;;
8913;SDS011;4492;48.736;9.092;2023-06-24T09:54:46;4.00;;;3.70;;
8913;SDS011;4492;48.736;9.092;2023-06-24T09:57:17;3.90;;;3.23;;
8913;SDS011;4492;48.736;9.092;2023-06-24T09:59:50;6.27;;;3.40;;
8913;SDS011;4492;48.736;9.092;2023-06-24T10:02:17;4.10;;;3.47;;
8913;SDS011;4492;48.736;9.092;2023-06-24T10:04:43;3.30;;;3.10;;
8913;SDS011;4492;48.736;9.092;2023-06-24T10:07:10;3.87;;;3.53;;
8913;SDS011;4492;48.736;9.092;2023-06-24T10:09:35;4.43;;;3.80;;
8913;SDS011;4492;48.736;9.092;2023-06-24T10:12:03;3.67;;;3.37;;
8913;SDS011;4492;48.736;9.092;2023-06-24T10:14:29;3.57;;;3.27;;
8913;SDS011;4492;48.736;9.092;2023-06-24T10:17:02;3.57;;;3.27;;
8913;SDS011;4492;48.736;9.092;2023-06-24T10:19:28;3.47;;;3.27;;
8913;SDS011;4492;48.736;9.092;2023-06-24T10:21:57;3.83;;;3.43;;
8913;SDS011;4492;48.736;9.092;2023-06-24T10:24:30;3.73;;;3.40;;
8913;SDS011;4492;48.736;9.092;2023-06-24T10:29:37;3.97;;;3.67;;
8913;SDS011;4492;48.736;9.092;2023-06-24T10:32:03;3.50;;;3.30;;
8913;SDS011;4492;48.736;9.092;2023-06-24T10:34:33;3.67;;;3.37;;
8913;SDS011;4492;48.736;9.092;2023-06-24T10:37:00;3.90;;;3.60;;
8913;SDS011;4492;48.736;9.092;2023-06-24T10:45:14;3.93;;;3.60;;
8913;SDS011;4492;48.736;9.092;2023-06-24T10:47:42;3.10;;;2.90;;
8913;SDS011;4492;48.736;9.092;2023-06-24T10:50:08;3.20;;;2.90;;
8913;SDS011;4492;48.736;9.092;2023-06-24T10:52:44;3.33;;;3.03;;
8913;SDS011;4492;48.736;9.092;2023-06-24T10:55:15;3.30;;;3.10;;
8913;SDS011;4492;48.736;9.092;2023-06-24T10:57:41;3.20;;;3.00;;
8913;SDS011;4492;48.736;9.092;2023-06-24T11:00:07;3.80;;;3.00;;
8913;SDS011;4492;48.736;9.092;2023-06-24T11:02:33;3.20;;;3.00;;
8913;SDS011;4492;48.736;9.092;2023-06-24T11:04:59;3.13;;;2.93;;
8913;SDS011;4492;48.736;9.092;2023-06-24T11:07:30;3.93;;;3.07;;
8913;SDS011;4492;48.736;9.092;2023-06-24T11:10:00;3.47;;;2.87;;
8913;SDS011;4492;48.736;9.092;2023-06-24T11:12:27;3.17;;;2.97;;
8913;SDS011;4492;48.736;9.092;2023-06-24T11:14:55;3.83;;;3.10;;
8913;SDS011;4492;48.736;9.092;2023-06-24T11:17:21;3.30;;;3.10;;
8913;SDS011;4492;48.736;9.092;2023-06-24T11:19:47;3.70;;;3.43;;
8913;SDS011;4492;48.736;9.092;2023-06-24T11:22:13;3.23;;;2.93;;
8913;SDS011;4492;48.736;9.092;2023-06-24T11:24:38;4.00;;;3.40;;
8913;SDS011;4492;48.736;9.092;2023-06-24T11:27:07;3.83;;;3.00;;
8913;SDS011;4492;48.736;9.092;2023-06-24T11:29:33;3.40;;;3.10;;
8913;SDS011;4492;48.736;9.092;2023-06-24T11:32:00;3.23;;;2.93;;
8913;SDS011;4492;48.736;9.092;2023-06-24T11:34:26;3.27;;;3.07;;
8913;SDS011;4492;48.736;9.092;2023-06-24T11:36:52;3.70;;;3.50;;
8913;SDS011;4492;48.736;9.092;2023-06-24T11:39:24;3.60;;;3.30;;
8913;SDS011;4492;48.736;9.092;2023-06-24T11:41:52;3.60;;;3.30;;
8913;SDS011;4492;48.736;9.092;2023-06-24T11:44:19;3.70;;;3.33;;
8913;SDS011;4492;48.736;9.092;2023-06-24T11:46:45;3.10;;;2.90;;
8913;SDS011;4492;48.736;9.092;2023-06-24T11:49:11;3.20;;;3.00;;
8913;SDS011;4492;48.736;9.092;2023-06-24T11:51:37;3.30;;;3.10;;
8913;SDS011;4492;48.736;9.092;2023-06-24T11:54:13;3.13;;;3.00;;
8913;SDS011;4492;48.736;9.092;2023-06-24T11:56:41;3.60;;;3.30;;
8913;SDS011;4492;48.736;9.092;2023-06-24T11:59:15;3.13;;;2.83;;
8913;SDS011;4492;48.736;9.092;2023-06-24T12:01:46;3.80;;;3.50;;
8913;SDS011;4492;48.736;9.092;2023-06-24T12:04:19;3.50;;;3.20;;
8913;SDS011;4492;48.736;9.092;2023-06-24T12:06:45;3.50;;;3.30;;
8913;SDS011;4492;48.736;9.092;2023-06-24T12:09:11;3.20;;;3.00;;
8913;SDS011;4492;48.736;9.092;2023-06-24T12:11:37;3.43;;;3.10;;
8913;SDS011;4492;48.736;9.092;2023-06-24T12:14:03;3.00;;;2.80;;
8913;SDS011;4492;48.736;9.092;2023-06-24T12:16:30;2.93;;;2.73;;
8913;SDS011;4492;48.736;9.092;2023-06-24T12:18:55;5.10;;;3.10;;
8913;SDS011;4492;48.736;9.092;2023-06-24T12:21:21;3.50;;;3.30;;
8913;SDS011;4492;48.736;9.092;2023-06-24T12:23:46;3.40;;;3.20;;
8913;SDS011;4492;48.736;9.092;2023-06-24T12:26:12;3.33;;;3.10;;
8913;SDS011;4492;48.736;9.092;2023-06-24T12:28:38;5.63;;;3.60;;
8913;SDS011;4492;48.736;9.092;2023-06-24T12:31:03;3.80;;;3.50;;
8913;SDS011;4492;48.736;9.092;2023-06-24T12:33:32;3.37;;;3.17;;
8913;SDS011;4492;48.736;9.092;2023-06-24T12:35:58;3.27;;;2.93;;
8913;SDS011;4492;48.736;9.092;2023-06-24T12:38:24;3.60;;;3.33;;
8913;SDS011;4492;48.736;9.092;2023-06-24T12:40:49;3.60;;;3.30;;
8913;SDS011;4492;48.736;9.092;2023-06-24T12:43:15;3.40;;;3.20;;
8913;SDS011;4492;48.736;9.092;2023-06-24T12:45:41;3.87;;;3.30;;
8913;SDS011;4492;48.736;9.092;2023-06-24T12:48:08;3.10;;;2.90;;
8913;SDS011;4492;48.736;9.092;2023-06-24T12:50:34;4.53;;;3.10;;
8913;SDS011;4492;48.736;9.092;2023-06-24T12:52:59;3.10;;;2.90;;
8913;SDS011;4492;48.736;9.092;2023-06-24T12:55:26;3.43;;;3.20;;
8913;SDS011;4492;48.736;9.092;2023-06-24T12:57:52;3.57;;;3.27;;
8913;SDS011;4492;48.736;9.092;2023-06-24T13:00:21;3.50;;;3.30;;
8913;SDS011;4492;48.736;9.092;2023-06-24T13:02:49;3.30;;;3.03;;
8913;SDS011;4492;48.736;9.092;2023-06-24T13:05:16;3.00;;;2.80;;
8913;SDS011;4492;48.736;9.092;2023-06-24T13:07:42;3.17;;;2.97;;
8913;SDS011;4492;48.736;9.092;2023-06-24T13:10:08;3.37;;;3.17;;
8913;SDS011;4492;48.736;9.092;2023-06-24T13:12:35;3.17;;;2.97;;
8913;SDS011;4492;48.736;9.092;2023-06-24T13:15:01;3.50;;;3.20;;
8913;SDS011;4492;48.736;9.092;2023-06-24T13:17:29;3.87;;;3.57;;
8913;SDS011;4492;48.736;9.092;2023-06-24T13:19:54;3.20;;;3.00;;
8913;SDS011;4492;48.736;9.092;2023-06-24T13:22:20;3.53;;;3.30;;
8913;SDS011;4492;48.736;9.092;2023-06-24T13:24:45;3.63;;;3.33;;
8913;SDS011;4492;48.736;9.092;2023-06-24T13:27:11;3.73;;;3.53;;
8913;SDS011;4492;48.736;9.092;2023-06-24T13:29:36;3.53;;;3.23;;
8913;SDS011;4492;48.736;9.092;2023-06-24T13:32:02;4.33;;;3.10;;
8913;SDS011;4492;48.736;9.092;2023-06-24T13:34:28;4.10;;;3.53;;
8913;SDS011;4492;48.736;9.092;2023-06-24T13:36:53;3.60;;;3.30;;
8913;SDS011;4492;48.736;9.092;2023-06-24T13:39:19;3.83;;;3.50;;
8913;SDS011;4492;48.736;9.092;2023-06-24T13:41:48;3.37;;;3.10;;
8913;SDS011;4492;48.736;9.092;2023-06-24T13:44:14;3.77;;;3.47;;
8913;SDS011;4492;48.736;9.092;2023-06-24T13:46:40;3.47;;;3.27;;
8913;SDS011;4492;48.736;9.092;2023-06-24T13:49:06;3.40;;;3.10;;
8913;SDS011;4492;48.736;9.092;2023-06-24T13:51:32;3.70;;;3.40;;
8913;SDS011;4492;48.736;9.092;2023-06-24T13:53:58;3.53;;;3.33;;
8913;SDS011;4492;48.736;9.092;2023-06-24T13:56:23;3.60;;;3.30;;
8913;SDS011;4492;48.736;9.092;2023-06-24T13:58:50;3.50;;;3.25;;
8913;SDS011;4492;48.736;9.092;2023-06-24T14:01:16;3.37;;;3.07;;
8913;SDS011;4492;48.736;9.092;2023-06-24T14:03:42;7.67;;;3.50;;
8913;SDS011;4492;48.736;9.092;2023-06-24T14:06:09;3.47;;;3.25;;
8913;SDS011;4492;48.736;9.092;2023-06-24T14:08:35;3.60;;;3.30;;
8913;SDS011;4492;48.736;9.092;2023-06-24T14:11:01;3.42;;;3.20;;
8913;SDS011;4492;48.736;9.092;2023-06-24T14:13:27;3.55;;;3.35;;
8913;SDS011;4492;48.736;9.092;2023-06-24T14:15:53;4.60;;;3.38;;
8913;SDS011;4492;48.736;9.092;2023-06-24T14:18:19;3.90;;;3.60;;
8913;SDS011;4492;48.736;9.092;2023-06-24T14:20:45;3.60;;;3.30;;
8913;SDS011;4492;48.736;9.092;2023-06-24T14:23:10;3.30;;;3.10;;
8913;SDS011;4492;48.736;9.092;2023-06-24T14:25:36;3.78;;;3.47;;
8913;SDS011;4492;48.736;9.092;2023-06-24T14:28:02;4.53;;;3.50;;
8913;SDS011;4492;48.736;9.092;2023-06-24T14:30:29;4.03;;;3.63;;
8913;SDS011;4492;48.736;9.092;2023-06-24T14:32:54;3.90;;;3.60;;
8913;SDS011;4492;48.736;9.092;2023-06-24T14:35:20;4.32;;;3.95;;
8913;SDS011;4492;48.736;9.092;2023-06-24T14:37:45;3.80;;;3.50;;
8913;SDS011;4492;48.736;9.092;2023-06-24T14:40:11;3.50;;;3.20;;
8913;SDS011;4492;48.736;9.092;2023-06-24T14:42:37;3.42;;;3.22;;
8913;SDS011;4492;48.736;9.092;2023-06-24T14:45:02;3.45;;;3.15;;
8913;SDS011;4492;48.736;9.092;2023-06-24T14:47:28;3.30;;;2.83;;
8913;SDS011;4492;48.736;9.092;2023-06-24T14:49:54;3.60;;;3.33;;
8913;SDS011;4492;48.736;9.092;2023-06-24T14:52:19;3.75;;;3.42;;
8913;SDS011;4492;48.736;9.092;2023-06-24T14:54:46;3.53;;;3.30;;
8913;SDS011;4492;48.736;9.092;2023-06-24T14:57:12;4.68;;;4.18;;
8913;SDS011;4492;48.736;9.092;2023-06-24T14:59:38;4.00;;;3.70;;
8913;SDS011;4492;48.736;9.092;2023-06-24T15:02:03;3.38;;;3.17;;
8913;SDS011;4492;48.736;9.092;2023-06-24T15:04:29;3.40;;;3.20;;
8913;SDS011;4492;48.736;9.092;2023-06-24T15:06:54;3.50;;;3.30;;
8913;SDS011;4492;48.736;9.092;2023-06-24T15:09:21;3.65;;;3.35;;
8913;SDS011;4492;48.736;9.092;2023-06-24T15:11:47;3.75;;;3.45;;
8913;SDS011;4492;48.736;9.092;2023-06-24T15:14:13;4.00;;;3.55;;
8913;SDS011;4492;48.736;9.092;2023-06-24T15:16:38;3.80;;;3.50;;
8913;SDS011;4492;48.736;9.092;2023-06-24T15:19:04;3.55;;;3.35;;
8913;SDS011;4492;48.736;9.092;2023-06-24T15:21:29;3.95;;;3.75;;
8913;SDS011;4492;48.736;9.092;2023-06-24T15:23:55;3.60;;;3.40;;
8913;SDS011;4492;48.736;9.092;2023-06-24T15:26:20;3.63;;;3.42;;
8913;SDS011;4492;48.736;9.092;2023-06-24T15:28:46;3.70;;;3.45;;
8913;SDS011;4492;48.736;9.092;2023-06-24T15:31:12;3.90;;;3.60;;
8913;SDS011;4492;48.736;9.092;2023-06-24T15:33:39;9.27;;;8.48;;
8913;SDS011;4492;48.736;9.092;2023-06-24T15:36:04;6.05;;;5.47;;